Terminal Aerodrome Forecast
Issued by NWS Billings, MT

Current Version | Previous Version | Text Only | Print | Product List | Glossary On
Versions: 1 2 3 4 5 6 7 8 9 10 11 12
000
FTUS45 KBYZ 262322
TAFBIL
TAF
KBIL 262322Z 2700/2724 11006KT P6SM FEW080 SCT100
     FM270500 VRB05KT P6SM BKN080
     FM271500 23008KT P6SM SCT080 BKN200
     FM272200 04005KT P6SM VCSH SCT060 BKN080=

USA.gov is the U.S. government's official web portal to all federal, state and local government web resources and services.